createdAt,value
2019-06-26T00:01:57.628Z,21.00
2019-06-26T00:04:25.201Z,21.00
2019-06-26T00:06:52.723Z,21.00
2019-06-26T00:09:20.261Z,21.00
2019-06-26T00:11:47.780Z,20.90
2019-06-26T00:14:15.338Z,20.90
2019-06-26T00:16:42.861Z,20.90
2019-06-26T00:19:10.392Z,20.80
2019-06-26T00:21:37.928Z,20.70
2019-06-26T00:24:05.443Z,20.60
2019-06-26T00:26:32.979Z,20.50
2019-06-26T00:29:00.501Z,20.50
2019-06-26T00:31:28.049Z,20.40
2019-06-26T00:33:55.612Z,20.30
2019-06-26T00:36:23.200Z,20.20
2019-06-26T00:38:50.741Z,20.20
2019-06-26T00:41:18.318Z,20.20
2019-06-26T00:43:45.876Z,20.10
2019-06-26T00:46:13.410Z,20.10
2019-06-26T00:48:40.931Z,20.10
2019-06-26T00:51:08.479Z,20.10
2019-06-26T00:53:35.997Z,20.00
2019-06-26T00:56:03.535Z,20.00
2019-06-26T00:58:31.106Z,20.00
2019-06-26T01:00:58.627Z,20.00
2019-06-26T01:03:26.176Z,19.80
2019-06-26T01:05:53.752Z,19.80
2019-06-26T01:08:21.280Z,19.70
2019-06-26T01:10:48.800Z,19.70
2019-06-26T01:13:16.333Z,19.70
2019-06-26T01:15:43.890Z,19.70
2019-06-26T01:18:11.418Z,19.60
2019-06-26T01:20:38.933Z,19.60
2019-06-26T01:23:06.485Z,19.50
2019-06-26T01:25:34.000Z,19.40
2019-06-26T01:28:01.540Z,19.40
2019-06-26T01:30:29.060Z,19.40
2019-06-26T01:32:56.604Z,19.30
2019-06-26T01:35:24.199Z,19.20
2019-06-26T01:37:51.739Z,19.20
2019-06-26T01:40:19.320Z,19.20
2019-06-26T01:42:46.862Z,19.10
2019-06-26T01:45:14.391Z,19.10
2019-06-26T01:47:41.908Z,19.00
2019-06-26T01:50:09.439Z,19.00
2019-06-26T01:52:36.967Z,18.90
2019-06-26T01:55:05.080Z,18.90
2019-06-26T01:57:32.600Z,18.90
2019-06-26T02:00:00.130Z,18.80
2019-06-26T02:02:27.657Z,18.80
2019-06-26T02:04:55.182Z,18.80
2019-06-26T02:07:22.702Z,18.80
2019-06-26T02:09:50.220Z,18.80
2019-06-26T02:12:17.750Z,18.80
2019-06-26T02:14:45.260Z,18.80
2019-06-26T02:17:12.784Z,18.80
2019-06-26T02:19:40.308Z,18.80
2019-06-26T02:22:07.828Z,18.80
2019-06-26T02:24:35.351Z,18.80
2019-06-26T02:27:02.907Z,18.70
2019-06-26T02:29:30.650Z,18.70
2019-06-26T02:31:58.350Z,18.70
2019-06-26T02:34:25.878Z,18.60
2019-06-26T02:36:53.385Z,18.70
2019-06-26T02:39:20.907Z,18.60
2019-06-26T02:41:48.441Z,18.60
2019-06-26T02:44:15.961Z,18.60
2019-06-26T02:46:43.500Z,18.60
2019-06-26T02:49:11.041Z,18.50
2019-06-26T02:51:38.554Z,18.50
2019-06-26T02:54:06.098Z,18.60
2019-06-26T02:56:34.682Z,18.50
2019-06-26T02:59:02.206Z,18.50
2019-06-26T03:01:29.914Z,18.50
2019-06-26T03:03:57.437Z,18.50
2019-06-26T03:06:25.000Z,18.40
2019-06-26T03:08:52.584Z,18.50
2019-06-26T03:11:20.489Z,18.50
2019-06-26T03:13:48.008Z,18.50
2019-06-26T03:16:15.551Z,18.50
2019-06-26T03:18:43.081Z,18.50
2019-06-26T03:21:10.596Z,18.50
2019-06-26T03:23:38.128Z,18.50
2019-06-26T03:26:05.658Z,18.40
2019-06-26T03:28:33.257Z,18.50
2019-06-26T03:31:00.792Z,18.50
2019-06-26T03:33:28.344Z,18.50
2019-06-26T03:35:55.844Z,18.50
2019-06-26T03:38:23.380Z,18.50
2019-06-26T03:40:50.908Z,18.50
2019-06-26T03:43:18.542Z,18.50
2019-06-26T03:45:46.136Z,18.60
2019-06-26T03:48:13.647Z,18.60
2019-06-26T03:50:41.180Z,18.60
2019-06-26T03:53:08.851Z,18.60
2019-06-26T03:55:36.568Z,18.60
2019-06-26T03:58:04.161Z,18.60
2019-06-26T04:00:33.330Z,18.70
2019-06-26T04:03:00.871Z,18.70
2019-06-26T04:05:28.438Z,18.70
2019-06-26T04:07:55.955Z,18.80
2019-06-26T04:10:23.480Z,18.90
2019-06-26T04:12:51.016Z,18.90
2019-06-26T04:15:18.534Z,18.90
2019-06-26T04:17:46.073Z,18.90
2019-06-26T04:20:13.596Z,19.00
2019-06-26T04:22:41.120Z,19.00
2019-06-26T04:25:08.662Z,19.10
2019-06-26T04:27:36.216Z,19.10
2019-06-26T04:30:05.364Z,19.20
2019-06-26T04:32:32.886Z,19.20
2019-06-26T04:35:00.439Z,19.30
2019-06-26T04:37:27.961Z,19.40
2019-06-26T04:39:55.487Z,19.50
2019-06-26T04:42:23.021Z,19.60
2019-06-26T04:44:50.564Z,19.70
2019-06-26T04:47:18.076Z,19.80
2019-06-26T04:49:45.637Z,19.80
2019-06-26T04:52:13.171Z,19.90
2019-06-26T04:54:40.840Z,20.10
2019-06-26T04:57:08.352Z,20.20
2019-06-26T04:59:35.903Z,20.20
2019-06-26T05:02:03.430Z,20.40
2019-06-26T05:04:30.934Z,20.50
2019-06-26T05:06:58.459Z,20.60
2019-06-26T05:09:25.986Z,20.70
2019-06-26T05:11:53.509Z,20.80
2019-06-26T05:14:21.110Z,20.90
2019-06-26T05:16:48.660Z,21.00
2019-06-26T05:19:16.182Z,21.20
2019-06-26T05:21:43.752Z,21.30
2019-06-26T05:24:11.277Z,21.50
2019-06-26T05:26:38.805Z,21.60
2019-06-26T05:29:06.415Z,21.80
2019-06-26T05:31:33.944Z,21.90
2019-06-26T05:34:01.492Z,22.00
2019-06-26T05:36:29.078Z,22.20
2019-06-26T05:38:56.827Z,22.40
2019-06-26T05:41:24.356Z,22.60
2019-06-26T05:43:52.490Z,22.80
2019-06-26T05:46:30.602Z,23.00
2019-06-26T05:48:49.331Z,23.20
2019-06-26T05:51:16.857Z,23.30
2019-06-26T05:53:44.444Z,23.60
2019-06-26T05:56:11.965Z,23.70
2019-06-26T05:58:39.515Z,24.00
2019-06-26T06:01:07.021Z,24.20
2019-06-26T06:03:34.566Z,24.40
2019-06-26T06:06:02.134Z,24.70
2019-06-26T06:08:29.623Z,24.90
2019-06-26T06:10:58.224Z,25.00
2019-06-26T06:13:26.074Z,25.10
2019-06-26T06:15:53.662Z,25.40
2019-06-26T06:18:21.207Z,25.60
2019-06-26T06:20:48.755Z,25.80
2019-06-26T06:23:16.293Z,25.90
2019-06-26T06:25:43.836Z,26.10
2019-06-26T06:28:11.415Z,26.30
2019-06-26T06:30:38.956Z,26.50
2019-06-26T06:33:06.479Z,26.70
2019-06-26T06:35:34.071Z,26.80
2019-06-26T06:38:01.607Z,26.90
2019-06-26T06:40:29.176Z,27.10
2019-06-26T06:42:56.711Z,27.50
2019-06-26T06:45:24.288Z,27.60
2019-06-26T06:47:51.894Z,27.80
2019-06-26T06:50:19.479Z,28.10
2019-06-26T06:52:46.991Z,28.30
2019-06-26T06:55:14.535Z,28.60
2019-06-26T06:57:42.062Z,28.80
2019-06-26T07:00:09.760Z,28.90
2019-06-26T07:02:37.295Z,29.10
2019-06-26T07:05:05.655Z,29.40
2019-06-26T07:07:33.219Z,29.70
2019-06-26T07:10:00.848Z,29.80
2019-06-26T07:12:28.394Z,30.10
2019-06-26T07:14:56.097Z,30.00
2019-06-26T07:17:23.694Z,30.30
2019-06-26T07:19:51.223Z,30.50
2019-06-26T07:22:18.801Z,30.70
2019-06-26T07:24:46.441Z,30.80
2019-06-26T07:27:14.102Z,31.10
2019-06-26T07:29:41.694Z,31.20
2019-06-26T07:32:09.305Z,31.60
2019-06-26T07:34:36.936Z,31.90
2019-06-26T07:37:04.505Z,32.00
2019-06-26T07:39:32.025Z,32.30
2019-06-26T07:41:59.565Z,32.60
2019-06-26T07:44:27.197Z,32.60
2019-06-26T07:46:54.890Z,32.80
2019-06-26T07:49:22.408Z,33.10
2019-06-26T07:51:49.950Z,32.90
2019-06-26T07:54:17.469Z,33.20
2019-06-26T07:56:44.991Z,33.40
2019-06-26T07:59:12.520Z,33.30
2019-06-26T08:01:40.076Z,33.60
2019-06-26T08:04:07.604Z,33.70
2019-06-26T08:06:35.129Z,34.10
2019-06-26T08:09:02.837Z,34.10
2019-06-26T08:11:30.361Z,34.30
2019-06-26T08:13:57.888Z,34.60
2019-06-26T08:16:25.452Z,34.90
2019-06-26T08:18:52.965Z,35.10
2019-06-26T08:21:20.490Z,35.30
2019-06-26T08:23:48.020Z,35.60
2019-06-26T08:26:15.535Z,35.60
2019-06-26T08:28:43.060Z,35.80
2019-06-26T08:31:10.583Z,36.20
2019-06-26T08:33:38.116Z,36.00
2019-06-26T08:36:05.618Z,35.80
2019-06-26T08:38:35.828Z,35.80
2019-06-26T08:41:03.384Z,36.20
2019-06-26T08:43:31.577Z,36.40
2019-06-26T08:45:59.316Z,36.30
2019-06-26T08:48:38.767Z,36.70
2019-06-26T08:50:56.095Z,36.90
2019-06-26T08:53:23.687Z,37.20
2019-06-26T08:55:51.205Z,37.20
2019-06-26T08:58:18.727Z,37.60
2019-06-26T09:00:46.273Z,37.70
2019-06-26T09:03:13.865Z,37.70
2019-06-26T09:05:48.062Z,38.00
2019-06-26T09:08:10.753Z,37.60
2019-06-26T09:10:38.329Z,37.40
2019-06-26T09:13:05.852Z,37.80
2019-06-26T09:15:33.401Z,38.10
2019-06-26T09:18:00.986Z,37.70
2019-06-26T09:20:30.149Z,37.90
2019-06-26T09:22:57.679Z,37.90
2019-06-26T09:25:25.213Z,37.80
2019-06-26T09:27:52.768Z,38.20
2019-06-26T09:30:20.283Z,38.10
2019-06-26T09:32:47.808Z,38.30
2019-06-26T09:35:15.338Z,38.80
2019-06-26T09:37:42.861Z,38.80
2019-06-26T09:40:10.407Z,39.20
2019-06-26T09:42:37.977Z,39.30
2019-06-26T09:45:06.314Z,39.50
2019-06-26T09:47:33.867Z,39.70
2019-06-26T09:50:01.492Z,39.40
2019-06-26T09:52:29.116Z,38.80
2019-06-26T09:54:56.651Z,38.90
2019-06-26T09:57:24.187Z,39.30
2019-06-26T09:59:51.716Z,40.00
2019-06-26T10:02:19.254Z,40.40
2019-06-26T10:04:46.763Z,40.80
2019-06-26T10:07:14.332Z,41.10
2019-06-26T10:09:41.830Z,41.00
2019-06-26T10:12:09.521Z,40.60
2019-06-26T10:14:47.174Z,40.80
2019-06-26T10:17:06.452Z,40.90
2019-06-26T10:19:34.097Z,40.80
2019-06-26T10:22:01.626Z,41.30
2019-06-26T10:24:29.147Z,41.70
2019-06-26T10:26:56.724Z,42.10
2019-06-26T10:29:24.309Z,42.00
2019-06-26T10:31:51.815Z,42.40
2019-06-26T10:34:19.420Z,43.20
2019-06-26T10:36:46.991Z,43.50
2019-06-26T10:39:14.622Z,44.10
2019-06-26T10:41:42.233Z,44.10
2019-06-26T10:44:09.742Z,44.30
2019-06-26T10:46:37.260Z,44.50
2019-06-26T10:49:04.864Z,44.20
2019-06-26T10:51:32.380Z,44.50
2019-06-26T10:53:59.916Z,44.30
2019-06-26T10:56:28.821Z,45.00
2019-06-26T10:58:56.669Z,44.70
2019-06-26T11:01:24.166Z,44.60
2019-06-26T11:03:51.688Z,45.00
2019-06-26T11:06:19.215Z,44.60
2019-06-26T11:08:47.127Z,45.20
2019-06-26T11:11:14.965Z,44.10
2019-06-26T11:13:42.479Z,44.00
2019-06-26T11:16:10.024Z,44.00
2019-06-26T11:18:37.564Z,44.40
2019-06-26T11:21:05.095Z,44.60
2019-06-26T11:23:32.644Z,44.80
2019-06-26T11:26:00.168Z,45.20
2019-06-26T11:28:27.762Z,44.90
2019-06-26T11:30:55.363Z,44.80
2019-06-26T11:33:23.035Z,45.00
2019-06-26T11:35:50.570Z,45.30
2019-06-26T11:38:18.200Z,44.10
2019-06-26T11:40:45.767Z,43.80
2019-06-26T11:43:13.465Z,43.60
2019-06-26T11:45:40.958Z,43.60
2019-06-26T11:48:08.520Z,42.70
2019-06-26T11:50:36.065Z,42.60
2019-06-26T11:53:03.618Z,42.40
2019-06-26T11:55:31.200Z,42.40
2019-06-26T11:57:58.746Z,42.00
2019-06-26T12:00:26.314Z,41.90
2019-06-26T12:02:53.856Z,41.00
2019-06-26T12:05:21.445Z,41.20
2019-06-26T12:07:48.974Z,40.90
2019-06-26T12:10:16.525Z,41.20
2019-06-26T12:12:44.062Z,41.30
2019-06-26T12:15:13.549Z,41.20
2019-06-26T12:17:41.254Z,41.60
2019-06-26T12:20:18.791Z,41.60
2019-06-26T12:22:38.122Z,41.30
2019-06-26T12:25:05.698Z,41.50
2019-06-26T12:27:33.331Z,41.20
2019-06-26T12:30:00.901Z,41.00
2019-06-26T12:32:28.500Z,41.50
2019-06-26T12:34:56.044Z,41.70
2019-06-26T12:37:36.592Z,41.70
2019-06-26T12:39:52.871Z,41.80
2019-06-26T12:42:20.513Z,41.90
2019-06-26T12:44:48.355Z,41.90
2019-06-26T12:47:15.916Z,42.20
2019-06-26T12:49:43.590Z,42.50
2019-06-26T12:52:11.092Z,42.80
2019-06-26T12:54:38.709Z,43.30
2019-06-26T12:57:06.667Z,42.60
2019-06-26T12:59:34.211Z,42.80
2019-06-26T13:02:01.845Z,42.80
2019-06-26T13:04:29.439Z,42.70
2019-06-26T13:06:59.075Z,42.70
2019-06-26T13:09:26.298Z,42.40
2019-06-26T13:11:53.907Z,42.60
2019-06-26T13:14:21.429Z,42.50
2019-06-26T13:16:48.971Z,42.60
2019-06-26T13:19:16.488Z,42.60
2019-06-26T13:21:44.016Z,42.00
2019-06-26T13:24:11.683Z,41.70
2019-06-26T13:26:39.207Z,41.30
2019-06-26T13:29:09.773Z,41.70
2019-06-26T13:31:35.975Z,42.20
2019-06-26T13:34:03.519Z,42.70
2019-06-26T13:36:31.085Z,43.00
2019-06-26T13:38:58.615Z,42.80
2019-06-26T13:41:26.379Z,42.80
2019-06-26T13:43:53.916Z,42.40
2019-06-26T13:46:21.453Z,42.20
2019-06-26T13:48:49.010Z,41.90
2019-06-26T13:51:16.545Z,41.60
2019-06-26T13:53:44.046Z,41.70
2019-06-26T13:56:11.796Z,41.70
2019-06-26T13:58:39.457Z,41.40
2019-06-26T14:01:06.975Z,40.60
2019-06-26T14:03:34.513Z,40.60
2019-06-26T14:06:02.035Z,40.30
2019-06-26T14:08:32.725Z,40.50
2019-06-26T14:10:58.891Z,39.80
2019-06-26T14:13:26.441Z,39.80
2019-06-26T14:15:53.971Z,39.70
2019-06-26T14:18:21.509Z,39.80
2019-06-26T14:20:49.031Z,39.70
2019-06-26T14:23:16.567Z,40.30
2019-06-26T14:25:44.119Z,40.60
2019-06-26T14:28:11.621Z,41.20
2019-06-26T14:30:39.162Z,41.30
2019-06-26T14:33:06.718Z,41.70
2019-06-26T14:35:34.267Z,42.00
2019-06-26T14:38:01.790Z,42.20
2019-06-26T14:40:29.305Z,42.50
2019-06-26T14:42:56.840Z,42.60
2019-06-26T14:45:24.380Z,41.90
2019-06-26T14:47:51.972Z,41.60
2019-06-26T14:50:19.507Z,41.10
2019-06-26T14:52:47.039Z,41.30
2019-06-26T14:55:14.581Z,41.20
2019-06-26T14:57:42.118Z,41.40
2019-06-26T15:00:09.764Z,41.20
2019-06-26T15:02:37.340Z,41.50
2019-06-26T15:05:05.551Z,41.70
2019-06-26T15:07:33.077Z,41.70
2019-06-26T15:10:00.617Z,41.90
2019-06-26T15:13:40.850Z,41.70
2019-06-26T15:16:09.072Z,41.80
2019-06-26T15:18:37.281Z,42.10
2019-06-26T15:21:05.496Z,42.30
2019-06-26T15:23:33.715Z,42.50
2019-06-26T15:26:01.952Z,42.20
2019-06-26T15:28:30.156Z,42.30
2019-06-26T15:30:58.383Z,42.70
2019-06-26T15:33:26.592Z,43.10
2019-06-26T15:35:55.160Z,43.40
2019-06-26T15:38:23.412Z,43.20
2019-06-26T15:40:51.656Z,43.10
2019-06-26T15:43:19.860Z,43.40
2019-06-26T15:45:48.090Z,43.50
2019-06-26T15:48:16.457Z,43.70
2019-06-26T15:50:44.696Z,43.90
2019-06-26T15:53:12.905Z,44.30
2019-06-26T15:55:41.195Z,44.10
2019-06-26T15:58:09.452Z,43.80
2019-06-26T16:00:37.726Z,43.40
2019-06-26T16:03:05.940Z,43.30
2019-06-26T16:05:34.139Z,43.00
2019-06-26T16:08:02.508Z,42.90
2019-06-26T16:10:34.293Z,42.90
2019-06-26T16:13:00.697Z,42.90
2019-06-26T16:15:28.925Z,42.50
2019-06-26T16:17:58.780Z,42.30
2019-06-26T16:20:27.012Z,42.20
2019-06-26T16:22:55.402Z,41.90
2019-06-26T16:25:23.625Z,42.00
2019-06-26T16:28:04.641Z,42.10
2019-06-26T16:30:23.406Z,42.20
2019-06-26T16:32:51.622Z,41.90
2019-06-26T16:35:19.824Z,41.70
2019-06-26T16:37:48.069Z,41.40
2019-06-26T16:40:16.276Z,41.20
2019-06-26T16:42:44.700Z,41.30
2019-06-26T16:45:13.089Z,41.30
2019-06-26T16:47:41.304Z,41.00
2019-06-26T16:50:09.601Z,40.90
2019-06-26T16:52:48.584Z,40.70
2019-06-26T16:55:07.832Z,40.30
2019-06-26T16:57:35.999Z,39.60
2019-06-26T17:00:09.903Z,39.40
2019-06-26T17:02:37.493Z,39.00
2019-06-26T17:05:06.720Z,38.80
2019-06-26T17:07:34.240Z,38.30
2019-06-26T17:10:02.537Z,38.00
2019-06-26T17:12:30.751Z,38.00
2019-06-26T17:14:58.977Z,37.90
2019-06-26T17:17:27.220Z,37.80
2019-06-26T17:19:55.423Z,37.60
2019-06-26T17:22:23.648Z,37.60
2019-06-26T17:24:51.876Z,37.60
2019-06-26T17:27:20.095Z,37.60
2019-06-26T17:29:48.372Z,37.60
2019-06-26T17:32:16.686Z,37.60
2019-06-26T17:34:44.892Z,37.50
2019-06-26T17:37:13.113Z,37.30
2019-06-26T17:39:41.324Z,37.00
2019-06-26T17:42:09.569Z,36.60
2019-06-26T17:44:37.774Z,36.40
2019-06-26T17:47:06.041Z,36.40
2019-06-26T17:49:34.332Z,36.20
2019-06-26T17:52:02.619Z,36.10
2019-06-26T17:54:30.920Z,36.00
2019-06-26T17:56:59.172Z,36.00
2019-06-26T17:59:27.504Z,35.90
2019-06-26T18:01:55.753Z,35.90
2019-06-26T18:04:24.301Z,35.90
2019-06-26T18:06:52.525Z,35.90
2019-06-26T18:09:20.778Z,35.80
2019-06-26T18:11:49.113Z,35.80
2019-06-26T18:14:17.341Z,35.70
2019-06-26T18:16:45.574Z,35.50
2019-06-26T18:19:13.835Z,35.50
2019-06-26T18:21:42.054Z,35.50
2019-06-26T18:24:10.312Z,35.60
2019-06-26T18:26:38.554Z,35.60
2019-06-26T18:29:06.897Z,35.40
2019-06-26T18:31:35.225Z,34.50
2019-06-26T18:34:03.645Z,33.70
2019-06-26T18:36:37.531Z,33.10
2019-06-26T18:39:07.910Z,32.60
2019-06-26T18:41:36.399Z,32.20
2019-06-26T18:44:04.645Z,32.00
2019-06-26T18:46:32.923Z,32.30
2019-06-26T18:49:01.175Z,33.00
2019-06-26T18:51:29.404Z,33.50
2019-06-26T18:54:01.336Z,34.00
2019-06-26T18:56:29.650Z,34.20
2019-06-26T18:58:57.892Z,33.70
2019-06-26T19:01:26.127Z,33.60
2019-06-26T19:03:54.443Z,33.70
2019-06-26T19:06:22.945Z,33.50
2019-06-26T19:08:51.274Z,33.40
2019-06-26T19:11:19.723Z,33.50
2019-06-26T19:13:47.995Z,33.30
2019-06-26T19:16:16.289Z,32.80
2019-06-26T19:18:44.628Z,32.50
2019-06-26T19:21:12.918Z,32.50
2019-06-26T19:23:41.251Z,32.00
2019-06-26T19:26:09.589Z,31.80
2019-06-26T19:28:37.998Z,32.00
2019-06-26T19:31:06.487Z,32.20
2019-06-26T19:33:36.793Z,31.90
2019-06-26T19:36:05.631Z,32.00
2019-06-26T19:38:33.902Z,32.00
2019-06-26T19:41:02.251Z,31.60
2019-06-26T19:43:30.625Z,31.50
2019-06-26T19:45:58.881Z,31.80
2019-06-26T19:48:27.100Z,32.10
2019-06-26T19:50:55.334Z,31.70
2019-06-26T19:53:23.557Z,31.50
2019-06-26T19:55:51.827Z,31.50
2019-06-26T19:58:21.525Z,31.70
2019-06-26T20:00:50.060Z,31.20
2019-06-26T20:03:18.352Z,30.80
2019-06-26T20:05:46.569Z,31.00
2019-06-26T20:08:14.862Z,31.40
2019-06-26T20:10:43.171Z,31.60
2019-06-26T20:13:11.425Z,31.10
2019-06-26T20:15:39.702Z,30.80
2019-06-26T20:18:07.970Z,31.10
2019-06-26T20:20:36.293Z,31.00
2019-06-26T20:23:04.679Z,30.30
2019-06-26T20:25:32.936Z,30.00
2019-06-26T20:28:01.239Z,30.40
2019-06-26T20:30:32.861Z,30.50
2019-06-26T20:33:05.173Z,29.70
2019-06-26T20:35:33.491Z,29.50
2019-06-26T20:38:01.808Z,29.10
2019-06-26T20:40:30.045Z,28.60
2019-06-26T20:42:58.333Z,28.20
2019-06-26T20:45:26.625Z,27.80
2019-06-26T20:47:54.834Z,27.60
2019-06-26T20:50:23.167Z,27.30
2019-06-26T20:52:51.471Z,27.20
2019-06-26T20:55:19.984Z,27.00
2019-06-26T20:57:52.246Z,26.90
2019-06-26T21:00:22.633Z,26.90
2019-06-26T21:02:53.997Z,26.80
2019-06-26T21:05:20.885Z,26.80
2019-06-26T21:07:50.262Z,26.70
2019-06-26T21:10:23.673Z,26.60
2019-06-26T21:12:51.913Z,26.60
2019-06-26T21:15:20.129Z,26.40
2019-06-26T21:17:48.470Z,26.40
2019-06-26T21:20:16.728Z,26.30
2019-06-26T21:22:44.972Z,26.20
2019-06-26T21:25:18.739Z,26.10
2019-06-26T21:27:43.210Z,26.00
2019-06-26T21:30:11.437Z,26.00
2019-06-26T21:32:39.694Z,25.90
2019-06-26T21:35:07.964Z,25.80
2019-06-26T21:37:36.210Z,25.80
2019-06-26T21:40:04.417Z,25.70
2019-06-26T21:42:32.660Z,25.70
2019-06-26T21:45:00.886Z,25.70
2019-06-26T21:47:29.093Z,25.60
2019-06-26T21:49:57.315Z,25.50
2019-06-26T21:52:25.529Z,25.50
2019-06-26T21:54:53.747Z,25.40
2019-06-26T21:57:21.972Z,25.30
2019-06-26T21:59:50.245Z,25.30
2019-06-26T22:02:18.549Z,25.20
2019-06-26T22:04:46.778Z,25.10
2019-06-26T22:07:14.980Z,25.10
2019-06-26T22:09:43.186Z,25.00
2019-06-26T22:12:11.680Z,24.90
2019-06-26T22:14:39.967Z,24.80
2019-06-26T22:17:08.284Z,24.80
2019-06-26T22:19:36.497Z,24.70
2019-06-26T22:22:04.730Z,24.60
2019-06-26T22:24:33.007Z,24.60
2019-06-26T22:27:01.224Z,24.50
2019-06-26T22:29:29.439Z,24.50
2019-06-26T22:31:57.671Z,24.30
2019-06-26T22:34:25.948Z,24.30
2019-06-26T22:36:54.262Z,24.20
2019-06-26T22:39:22.452Z,24.20
2019-06-26T22:41:50.676Z,24.20
2019-06-26T22:44:18.905Z,24.10
2019-06-26T22:46:47.131Z,24.10
2019-06-26T22:49:15.406Z,24.00
2019-06-26T22:51:43.607Z,24.00
2019-06-26T22:54:11.844Z,23.90
2019-06-26T22:56:40.083Z,23.80
2019-06-26T22:59:08.312Z,23.80
2019-06-26T23:01:36.520Z,23.70
2019-06-26T23:04:04.849Z,23.70
2019-06-26T23:06:37.371Z,23.60
2019-06-26T23:09:05.049Z,23.50
2019-06-26T23:11:33.272Z,23.50
2019-06-26T23:14:01.540Z,23.40
2019-06-26T23:16:29.769Z,23.40
2019-06-26T23:18:57.992Z,23.30
2019-06-26T23:21:26.260Z,23.30
2019-06-26T23:23:55.852Z,23.30
2019-06-26T23:26:24.694Z,23.20
2019-06-26T23:28:53.039Z,23.10
2019-06-26T23:31:21.261Z,23.10
2019-06-26T23:33:49.473Z,23.10
2019-06-26T23:36:17.691Z,23.10
2019-06-26T23:38:45.929Z,23.10
2019-06-26T23:41:15.875Z,23.00
2019-06-26T23:43:44.083Z,23.00
2019-06-26T23:46:12.319Z,22.90
2019-06-26T23:48:40.534Z,22.80
2019-06-26T23:51:08.740Z,22.80
2019-06-26T23:53:36.957Z,22.70
2019-06-26T23:56:05.173Z,22.70
2019-06-26T23:58:33.404Z,22.60
